createdAt,value
2022-08-31T00:00:33.977Z,11.80
2022-08-31T00:03:20.095Z,19.63
2022-08-31T00:05:47.669Z,19.27
2022-08-31T00:08:15.832Z,17.80
2022-08-31T00:10:46.417Z,24.85
2022-08-31T00:13:14.364Z,25.38
2022-08-31T00:15:43.292Z,22.08
2022-08-31T00:18:11.164Z,25.95
2022-08-31T00:20:38.450Z,25.02
2022-08-31T00:23:11.731Z,26.80
2022-08-31T00:25:42.469Z,28.13
2022-08-31T00:30:39.161Z,23.58
2022-08-31T00:33:06.696Z,19.50
2022-08-31T00:35:36.820Z,32.88
2022-08-31T00:38:06.598Z,29.55
2022-08-31T00:40:44.375Z,29.53
2022-08-31T00:43:39.392Z,33.03
2022-08-31T00:46:09.483Z,24.15
2022-08-31T00:48:51.713Z,28.75
2022-08-31T00:51:19.578Z,22.77
2022-08-31T00:53:49.714Z,27.65
2022-08-31T00:56:20.152Z,29.83
2022-08-31T00:58:48.910Z,24.27
2022-08-31T01:01:22.900Z,23.45
2022-08-31T01:03:50.630Z,27.40
2022-08-31T01:06:18.930Z,25.92
2022-08-31T01:08:47.291Z,30.73
2022-08-31T01:11:16.101Z,24.90
2022-08-31T01:13:45.112Z,30.35
2022-08-31T01:16:36.590Z,29.30
2022-08-31T01:19:11.532Z,24.73
2022-08-31T01:22:11.888Z,26.05
2022-08-31T01:24:44.668Z,28.27
2022-08-31T01:27:15.216Z,26.55
2022-08-31T01:32:09.803Z,22.35
2022-08-31T01:34:37.296Z,24.58
2022-08-31T01:37:05.132Z,22.00
2022-08-31T01:39:32.682Z,20.02
2022-08-31T01:42:00.032Z,25.20
2022-08-31T01:44:28.319Z,22.13
2022-08-31T01:46:56.969Z,18.48
2022-08-31T01:49:24.677Z,23.05
2022-08-31T01:51:53.964Z,25.17
2022-08-31T01:54:23.925Z,24.27
2022-08-31T01:56:51.460Z,23.33
2022-08-31T01:59:28.117Z,20.95
2022-08-31T02:01:59.998Z,25.17
2022-08-31T02:04:29.253Z,21.35
2022-08-31T02:07:01.060Z,16.63
2022-08-31T02:09:30.131Z,18.90
2022-08-31T02:11:59.271Z,20.13
2022-08-31T02:14:26.901Z,24.25
2022-08-31T02:16:54.763Z,21.30
2022-08-31T02:19:22.083Z,16.25
2022-08-31T02:21:49.570Z,19.25
2022-08-31T02:24:17.766Z,19.10
2022-08-31T02:26:45.040Z,22.15
2022-08-31T02:29:12.533Z,16.10
2022-08-31T02:31:40.123Z,18.15
2022-08-31T02:34:07.572Z,19.92
2022-08-31T02:36:35.956Z,20.65
2022-08-31T02:39:05.913Z,23.45
2022-08-31T02:41:34.522Z,20.48
2022-08-31T02:44:02.548Z,21.60
2022-08-31T02:46:30.182Z,15.45
2022-08-31T02:49:17.988Z,20.77
2022-08-31T02:51:45.428Z,20.35
2022-08-31T02:54:12.980Z,20.50
2022-08-31T02:56:41.504Z,24.45
2022-08-31T02:59:09.608Z,23.65
2022-08-31T03:01:38.173Z,19.75
2022-08-31T03:04:05.973Z,23.52
2022-08-31T03:06:33.479Z,23.65
2022-08-31T03:09:02.768Z,31.70
2022-08-31T03:11:30.630Z,25.60
2022-08-31T03:13:58.883Z,31.00
2022-08-31T03:16:26.848Z,36.17
2022-08-31T03:18:54.160Z,39.13
2022-08-31T03:21:21.411Z,38.05
2022-08-31T03:23:48.684Z,36.70
2022-08-31T03:26:16.272Z,34.97
2022-08-31T03:28:43.677Z,30.27
2022-08-31T03:31:31.252Z,35.75
2022-08-31T03:33:59.274Z,25.80
2022-08-31T03:36:26.824Z,30.63
2022-08-31T03:38:54.195Z,29.02
2022-08-31T03:41:25.684Z,25.52
2022-08-31T03:46:20.939Z,24.88
2022-08-31T03:48:48.652Z,17.35
2022-08-31T03:51:18.136Z,22.58
2022-08-31T03:53:46.091Z,27.50
2022-08-31T03:56:18.649Z,21.60
2022-08-31T03:58:47.175Z,24.00
2022-08-31T04:01:32.482Z,22.35
2022-08-31T04:04:18.382Z,35.58
2022-08-31T04:07:04.258Z,29.30
2022-08-31T04:09:51.260Z,31.05
2022-08-31T04:12:38.646Z,29.63
2022-08-31T04:15:12.271Z,25.70
2022-08-31T04:18:06.620Z,31.17
2022-08-31T04:20:48.358Z,29.67
2022-08-31T04:23:15.783Z,31.35
2022-08-31T04:25:48.209Z,26.98
2022-08-31T04:28:16.276Z,29.98
2022-08-31T04:30:45.575Z,24.10
2022-08-31T04:33:16.795Z,23.20
2022-08-31T04:35:44.802Z,22.33
2022-08-31T04:38:12.484Z,26.67
2022-08-31T04:40:44.100Z,30.65
2022-08-31T04:43:11.974Z,21.53
2022-08-31T04:45:44.669Z,31.30
2022-08-31T04:48:14.903Z,26.52
2022-08-31T04:50:43.367Z,30.83
2022-08-31T04:53:11.083Z,26.02
2022-08-31T04:55:42.847Z,30.60
2022-08-31T04:58:13.907Z,20.63
2022-08-31T05:00:44.101Z,23.98
2022-08-31T05:03:44.446Z,24.77
2022-08-31T05:06:17.565Z,19.38
2022-08-31T05:08:45.283Z,18.42
2022-08-31T05:11:16.730Z,17.02
2022-08-31T05:13:45.171Z,20.83
2022-08-31T05:16:16.371Z,23.23
2022-08-31T05:18:48.180Z,17.33
2022-08-31T05:21:28.447Z,16.13
2022-08-31T05:24:09.521Z,14.13
2022-08-31T05:26:47.275Z,16.38
2022-08-31T05:29:18.233Z,17.13
2022-08-31T05:34:21.880Z,14.85
2022-08-31T05:36:56.269Z,13.90
2022-08-31T05:39:24.645Z,14.43
2022-08-31T05:41:52.348Z,16.75
2022-08-31T05:44:21.285Z,17.95
2022-08-31T05:46:57.335Z,14.63
2022-08-31T05:49:32.137Z,19.98
2022-08-31T05:52:05.466Z,16.83
2022-08-31T05:54:35.903Z,15.43
2022-08-31T05:57:04.103Z,14.13
2022-08-31T05:59:32.161Z,13.82
2022-08-31T06:02:02.380Z,14.68
2022-08-31T06:04:34.060Z,13.98
2022-08-31T06:07:01.893Z,20.58
2022-08-31T06:09:38.613Z,15.02
2022-08-31T06:12:08.930Z,16.23
2022-08-31T06:14:36.554Z,14.88
2022-08-31T06:17:04.296Z,19.15
2022-08-31T06:19:32.286Z,18.48
2022-08-31T06:22:00.258Z,15.38
2022-08-31T06:24:28.858Z,15.20
2022-08-31T06:26:59.595Z,14.38
2022-08-31T06:29:34.830Z,13.70
2022-08-31T06:32:08.289Z,14.60
2022-08-31T06:34:40.098Z,13.55
2022-08-31T06:37:19.044Z,16.73
2022-08-31T06:40:16.046Z,16.05
2022-08-31T06:42:57.449Z,16.20
2022-08-31T06:45:50.667Z,19.38
2022-08-31T06:48:35.196Z,13.32
2022-08-31T06:51:03.466Z,12.18
2022-08-31T06:53:31.189Z,18.05
2022-08-31T06:56:25.244Z,12.48
2022-08-31T06:59:12.333Z,18.20
2022-08-31T07:02:01.922Z,14.63
2022-08-31T07:04:39.436Z,15.60
2022-08-31T07:07:11.468Z,12.57
2022-08-31T07:09:42.279Z,10.50
2022-08-31T07:12:11.376Z,16.08
2022-08-31T07:14:39.071Z,15.00
2022-08-31T07:17:08.408Z,14.80
2022-08-31T07:19:36.167Z,10.73
2022-08-31T07:22:09.295Z,12.93
2022-08-31T07:24:42.680Z,15.48
2022-08-31T07:27:16.624Z,15.30
2022-08-31T07:30:00.372Z,13.32
2022-08-31T07:32:32.363Z,17.38
2022-08-31T07:35:01.133Z,19.83
2022-08-31T07:37:50.196Z,13.18
2022-08-31T07:40:39.313Z,17.33
2022-08-31T07:43:10.041Z,14.23
2022-08-31T07:45:39.386Z,14.30
2022-08-31T07:48:07.706Z,13.73
2022-08-31T07:53:56.096Z,14.25
2022-08-31T07:56:25.940Z,11.90
2022-08-31T07:59:10.987Z,11.10
2022-08-31T08:01:41.389Z,13.10
2022-08-31T08:04:13.272Z,10.50
2022-08-31T08:07:00.850Z,10.73
2022-08-31T08:09:47.731Z,11.65
2022-08-31T08:12:37.788Z,13.15
2022-08-31T08:15:12.816Z,8.02
2022-08-31T08:17:56.474Z,10.07
2022-08-31T08:20:37.876Z,6.38
2022-08-31T08:23:14.374Z,9.23
2022-08-31T08:26:07.273Z,5.45
2022-08-31T08:28:57.729Z,7.95
2022-08-31T08:31:26.090Z,6.80
2022-08-31T08:33:53.516Z,6.50
2022-08-31T08:36:21.232Z,6.38
2022-08-31T08:38:54.116Z,7.10
2022-08-31T08:41:27.044Z,10.00
2022-08-31T08:43:58.976Z,4.93
2022-08-31T08:46:40.334Z,4.20
2022-08-31T08:49:21.142Z,6.90
2022-08-31T08:54:38.942Z,6.57
2022-08-31T08:57:17.492Z,3.50
2022-08-31T08:59:49.560Z,6.38
2022-08-31T09:02:25.182Z,4.53
2022-08-31T09:05:04.437Z,2.60
2022-08-31T09:08:16.570Z,3.47
2022-08-31T09:11:17.662Z,3.20
2022-08-31T09:14:25.020Z,4.40
2022-08-31T09:18:00.295Z,3.60
2022-08-31T09:20:28.889Z,2.88
2022-08-31T09:22:58.649Z,2.33
2022-08-31T09:25:37.503Z,2.30
2022-08-31T09:28:39.003Z,3.58
2022-08-31T09:31:06.944Z,1.88
2022-08-31T09:33:46.852Z,2.42
2022-08-31T09:36:22.931Z,1.65
2022-08-31T09:38:50.758Z,2.03
2022-08-31T09:41:32.866Z,5.60
2022-08-31T09:44:41.466Z,1.63
2022-08-31T09:47:52.124Z,4.85
2022-08-31T09:50:45.232Z,5.25
2022-08-31T09:53:46.517Z,2.90
2022-08-31T09:56:22.405Z,3.92
2022-08-31T09:58:52.740Z,1.67
2022-08-31T10:01:45.776Z,4.63
2022-08-31T10:04:28.535Z,2.10
2022-08-31T10:07:25.065Z,2.92
2022-08-31T10:10:16.022Z,2.95
2022-08-31T10:13:18.211Z,3.33
2022-08-31T10:16:30.540Z,3.17
2022-08-31T10:19:20.330Z,2.75
2022-08-31T10:22:00.151Z,3.67
2022-08-31T10:27:20.704Z,5.28
2022-08-31T10:30:06.832Z,1.95
2022-08-31T10:32:56.478Z,1.83
2022-08-31T10:35:52.715Z,2.17
2022-08-31T10:38:30.826Z,3.33
2022-08-31T10:41:16.532Z,2.78
2022-08-31T10:44:01.697Z,2.40
2022-08-31T10:46:35.711Z,1.70
2022-08-31T10:49:04.942Z,2.08
2022-08-31T10:52:17.553Z,1.88
2022-08-31T10:55:23.687Z,1.58
2022-08-31T10:58:20.049Z,1.40
2022-08-31T11:01:13.153Z,3.22
2022-08-31T11:04:20.064Z,1.80
2022-08-31T11:06:55.647Z,2.90
2022-08-31T11:09:33.649Z,1.63
2022-08-31T11:12:18.510Z,2.72
2022-08-31T11:15:09.698Z,1.52
2022-08-31T11:17:50.258Z,1.30
2022-08-31T11:20:47.723Z,2.17
2022-08-31T11:23:30.002Z,2.78
2022-08-31T11:27:04.973Z,2.95
2022-08-31T11:29:56.930Z,2.38
2022-08-31T11:32:51.037Z,2.35
2022-08-31T11:35:57.346Z,2.28
2022-08-31T11:39:15.347Z,2.10
2022-08-31T11:41:46.949Z,3.35
2022-08-31T11:44:34.196Z,3.28
2022-08-31T11:47:37.942Z,1.65
2022-08-31T11:50:32.809Z,1.77
2022-08-31T11:53:18.251Z,2.22
2022-08-31T11:55:51.990Z,1.55
2022-08-31T11:58:26.662Z,4.93
2022-08-31T12:01:27.108Z,3.58
2022-08-31T12:04:03.880Z,2.10
2022-08-31T12:06:37.298Z,1.55
2022-08-31T12:09:46.044Z,5.88
2022-08-31T12:12:51.362Z,1.20
2022-08-31T12:15:50.124Z,1.70
2022-08-31T12:19:06.864Z,1.27
2022-08-31T12:22:17.365Z,1.65
2022-08-31T12:25:11.711Z,3.78
2022-08-31T12:28:03.699Z,2.53
2022-08-31T12:30:31.102Z,3.85
2022-08-31T12:33:18.015Z,1.85
2022-08-31T12:35:49.598Z,2.80
2022-08-31T12:38:23.908Z,4.95
2022-08-31T12:40:57.535Z,2.53
2022-08-31T12:43:46.709Z,2.60
2022-08-31T12:46:49.164Z,2.50
2022-08-31T12:49:32.428Z,3.47
2022-08-31T12:52:35.196Z,2.47
2022-08-31T12:55:37.915Z,4.53
2022-08-31T12:58:38.956Z,2.90
2022-08-31T13:01:13.957Z,2.75
2022-08-31T13:03:52.647Z,3.83
2022-08-31T13:06:37.041Z,2.00
2022-08-31T13:09:06.451Z,4.20
2022-08-31T13:11:44.279Z,2.73
2022-08-31T13:14:43.497Z,5.07
2022-08-31T13:17:22.094Z,3.28
2022-08-31T13:19:56.812Z,4.18
2022-08-31T13:22:32.580Z,2.85
2022-08-31T13:25:39.537Z,3.25
2022-08-31T13:28:14.044Z,3.53
2022-08-31T13:30:55.355Z,9.88
2022-08-31T13:33:31.334Z,2.63
2022-08-31T13:36:06.383Z,3.22
2022-08-31T13:38:40.298Z,6.78
2022-08-31T13:41:17.301Z,3.05
2022-08-31T13:44:03.615Z,4.32
2022-08-31T13:46:49.790Z,3.22
2022-08-31T13:49:35.425Z,1.80
2022-08-31T13:52:17.817Z,4.75
2022-08-31T13:54:56.784Z,4.88
2022-08-31T13:57:28.582Z,5.15
2022-08-31T14:00:41.380Z,3.53
2022-08-31T14:03:49.519Z,2.03
2022-08-31T14:06:34.878Z,3.78
2022-08-31T14:09:17.129Z,3.97
2022-08-31T14:12:05.437Z,1.73
2022-08-31T14:14:43.401Z,4.38
2022-08-31T14:17:16.394Z,2.13
2022-08-31T14:19:45.266Z,4.70
2022-08-31T14:22:16.485Z,2.13
2022-08-31T14:24:44.195Z,5.75
2022-08-31T14:27:12.511Z,6.63
2022-08-31T14:29:42.143Z,1.63
2022-08-31T14:32:09.599Z,3.97
2022-08-31T14:34:49.310Z,3.03
2022-08-31T14:37:30.114Z,2.58
2022-08-31T14:40:05.550Z,4.72
2022-08-31T14:42:38.541Z,4.00
2022-08-31T14:45:18.694Z,1.77
2022-08-31T14:50:21.562Z,5.35
2022-08-31T14:52:55.135Z,2.00
2022-08-31T14:55:24.905Z,5.07
2022-08-31T14:57:59.941Z,2.15
2022-08-31T15:00:31.856Z,3.20
2022-08-31T15:03:02.611Z,2.40
2022-08-31T15:05:30.055Z,4.35
2022-08-31T15:07:57.691Z,2.72
2022-08-31T15:10:26.270Z,5.57
2022-08-31T15:12:54.327Z,4.32
2022-08-31T15:15:22.131Z,6.68
2022-08-31T15:17:52.137Z,2.40
2022-08-31T15:20:21.624Z,4.82
2022-08-31T15:22:49.992Z,4.97
2022-08-31T15:25:18.969Z,5.95
2022-08-31T15:27:46.761Z,2.22
2022-08-31T15:30:19.748Z,3.05
2022-08-31T15:32:48.914Z,4.18
2022-08-31T15:35:23.533Z,6.00
2022-08-31T15:37:56.562Z,1.88
2022-08-31T15:40:28.974Z,3.25
2022-08-31T15:42:57.334Z,3.50
2022-08-31T15:45:29.934Z,4.88
2022-08-31T15:48:19.324Z,4.45
2022-08-31T15:50:56.385Z,4.28
2022-08-31T15:53:27.402Z,3.03
2022-08-31T15:55:54.947Z,2.25
2022-08-31T15:58:25.137Z,4.10
2022-08-31T16:00:52.932Z,1.80
2022-08-31T16:03:20.287Z,6.20
2022-08-31T16:05:48.195Z,2.47
2022-08-31T16:08:15.649Z,4.30
2022-08-31T16:10:47.155Z,4.07
2022-08-31T16:13:16.331Z,3.33
2022-08-31T16:15:51.457Z,2.15
2022-08-31T16:18:22.452Z,4.55
2022-08-31T16:20:52.003Z,3.17
2022-08-31T16:23:21.054Z,5.70
2022-08-31T16:25:49.450Z,4.72
2022-08-31T16:28:21.036Z,5.15
2022-08-31T16:30:51.284Z,2.65
2022-08-31T16:33:19.867Z,5.45
2022-08-31T16:35:48.816Z,2.58
2022-08-31T16:38:16.909Z,2.15
2022-08-31T16:40:44.801Z,3.80
2022-08-31T16:43:12.302Z,3.30
2022-08-31T16:45:41.576Z,6.35
2022-08-31T16:48:29.831Z,2.85
2022-08-31T16:50:58.353Z,2.33
2022-08-31T16:53:26.003Z,1.95
2022-08-31T16:55:53.477Z,2.67
2022-08-31T16:58:40.912Z,3.00
2022-08-31T17:01:17.195Z,4.13
2022-08-31T17:03:50.952Z,2.75
2022-08-31T17:06:19.428Z,3.22
2022-08-31T17:08:47.242Z,2.67
2022-08-31T17:11:28.602Z,2.97
2022-08-31T17:13:58.604Z,3.17
2022-08-31T17:16:38.970Z,6.80
2022-08-31T17:21:51.969Z,2.60
2022-08-31T17:24:26.807Z,1.92
2022-08-31T17:26:59.775Z,2.72
2022-08-31T17:29:34.113Z,4.72
2022-08-31T17:32:14.303Z,4.30
2022-08-31T17:34:43.230Z,3.22
2022-08-31T17:37:15.321Z,4.10
2022-08-31T17:39:44.908Z,4.10
2022-08-31T17:42:16.066Z,1.47
2022-08-31T17:44:48.196Z,2.92
2022-08-31T17:47:16.686Z,3.97
2022-08-31T17:49:46.731Z,5.38
2022-08-31T17:52:14.910Z,2.83
2022-08-31T17:54:43.396Z,3.53
2022-08-31T17:57:15.005Z,5.95
2022-08-31T17:59:49.284Z,3.63
2022-08-31T18:02:32.734Z,3.05
2022-08-31T18:05:02.450Z,3.83
2022-08-31T18:07:30.242Z,9.10
2022-08-31T18:09:57.927Z,3.10
2022-08-31T18:12:25.934Z,7.53
2022-08-31T18:14:54.198Z,3.15
2022-08-31T18:17:22.526Z,4.40
2022-08-31T18:19:50.864Z,6.25
2022-08-31T18:22:19.844Z,4.20
2022-08-31T18:24:47.189Z,6.53
2022-08-31T18:27:17.814Z,7.80
2022-08-31T18:29:45.706Z,3.97
2022-08-31T18:32:13.786Z,6.10
2022-08-31T18:34:47.598Z,11.15
2022-08-31T18:37:21.103Z,5.72
2022-08-31T18:40:08.495Z,6.28
2022-08-31T18:42:56.822Z,7.53
2022-08-31T18:45:26.902Z,5.00
2022-08-31T18:50:47.500Z,12.02
2022-08-31T18:53:27.579Z,5.07
2022-08-31T18:56:08.956Z,5.68
2022-08-31T18:58:38.202Z,7.82
2022-08-31T19:01:10.432Z,4.60
2022-08-31T19:03:39.709Z,5.72
2022-08-31T19:06:08.491Z,4.93
2022-08-31T19:08:35.989Z,6.50
2022-08-31T19:11:07.501Z,5.10
2022-08-31T19:13:35.437Z,6.78
2022-08-31T19:16:14.812Z,4.57
2022-08-31T19:18:44.934Z,4.72
2022-08-31T19:21:23.953Z,5.28
2022-08-31T19:23:52.027Z,7.75
2022-08-31T19:26:41.215Z,7.30
2022-08-31T19:29:14.376Z,6.50
2022-08-31T19:31:46.044Z,8.98
2022-08-31T19:34:18.182Z,4.50
2022-08-31T19:36:49.406Z,5.50
2022-08-31T19:39:23.018Z,4.20
2022-08-31T19:42:00.391Z,3.95
2022-08-31T19:44:28.288Z,4.00
2022-08-31T19:46:58.135Z,4.75
2022-08-31T19:49:27.979Z,7.95
2022-08-31T19:52:03.629Z,6.40
2022-08-31T19:54:35.323Z,7.47
2022-08-31T19:57:03.452Z,4.97
2022-08-31T19:59:30.920Z,4.63
2022-08-31T20:01:59.733Z,10.15
2022-08-31T20:04:29.767Z,4.07
2022-08-31T20:06:57.949Z,4.03
2022-08-31T20:09:27.717Z,5.28
2022-08-31T20:11:57.047Z,4.13
2022-08-31T20:14:24.450Z,6.68
2022-08-31T20:16:52.408Z,5.53
2022-08-31T20:19:25.075Z,5.78
2022-08-31T20:22:08.060Z,5.03
2022-08-31T20:24:43.650Z,9.95
2022-08-31T20:27:18.698Z,5.53
2022-08-31T20:29:48.220Z,6.40
2022-08-31T20:32:15.811Z,3.97
2022-08-31T20:34:44.813Z,3.38
2022-08-31T20:37:13.123Z,5.00
2022-08-31T20:39:42.095Z,5.07
2022-08-31T20:42:09.676Z,10.40
2022-08-31T20:44:38.128Z,4.38
2022-08-31T20:47:27.730Z,9.85
2022-08-31T20:49:59.044Z,4.22
2022-08-31T20:52:32.953Z,5.65
2022-08-31T20:55:03.855Z,6.85
2022-08-31T20:57:36.172Z,5.68
2022-08-31T21:00:06.664Z,5.50
2022-08-31T21:07:52.862Z,6.05
2022-08-31T21:10:37.984Z,3.80
2022-08-31T21:13:12.511Z,6.25
2022-08-31T21:15:47.115Z,3.72
2022-08-31T21:18:17.831Z,4.18
2022-08-31T21:20:46.510Z,4.95
2022-08-31T21:23:14.050Z,6.80
2022-08-31T21:25:45.198Z,4.93
2022-08-31T21:28:17.437Z,3.47
2022-08-31T21:30:47.199Z,5.30
2022-08-31T21:33:14.828Z,6.75
2022-08-31T21:35:42.242Z,7.93
2022-08-31T21:38:12.201Z,4.47
2022-08-31T21:40:48.637Z,9.07
2022-08-31T21:43:16.114Z,4.93
2022-08-31T21:45:43.677Z,5.78
2022-08-31T21:48:11.095Z,7.63
2022-08-31T21:50:38.682Z,4.93
2022-08-31T21:53:06.121Z,5.05
2022-08-31T21:55:38.587Z,5.68
2022-08-31T21:58:05.937Z,6.90
2022-08-31T22:00:34.598Z,7.63
2022-08-31T22:03:02.618Z,6.10
2022-08-31T22:05:33.016Z,6.22
2022-08-31T22:08:01.725Z,4.00
2022-08-31T22:10:30.589Z,2.97
2022-08-31T22:12:58.534Z,3.78
2022-08-31T22:15:27.237Z,4.68
2022-08-31T22:18:17.884Z,6.72
2022-08-31T22:20:43.325Z,6.22
2022-08-31T22:23:11.552Z,5.53
2022-08-31T22:25:39.036Z,6.35
2022-08-31T22:28:07.464Z,5.25
2022-08-31T22:30:36.454Z,3.45
2022-08-31T22:33:04.601Z,3.50
2022-08-31T22:35:31.998Z,8.15
2022-08-31T22:37:59.346Z,5.82
2022-08-31T22:40:27.723Z,6.15
2022-08-31T22:42:55.262Z,5.18
2022-08-31T22:45:24.137Z,4.25
2022-08-31T22:47:51.447Z,8.70
2022-08-31T22:50:18.856Z,8.68
2022-08-31T22:52:46.624Z,5.38
2022-08-31T22:55:13.998Z,3.13
2022-08-31T22:57:41.540Z,5.35
2022-08-31T23:00:13.234Z,5.78
2022-08-31T23:02:47.615Z,4.88
2022-08-31T23:05:16.539Z,4.90
2022-08-31T23:07:44.421Z,2.90
2022-08-31T23:10:17.070Z,6.35
2022-08-31T23:12:47.645Z,5.90
2022-08-31T23:17:51.377Z,3.13
2022-08-31T23:20:24.573Z,5.47
2022-08-31T23:22:55.150Z,3.33
2022-08-31T23:25:24.473Z,4.55
2022-08-31T23:27:52.338Z,4.45
2022-08-31T23:30:22.527Z,4.38
2022-08-31T23:32:50.644Z,8.15
2022-08-31T23:35:18.786Z,8.77
2022-08-31T23:37:47.192Z,8.13
2022-08-31T23:40:16.075Z,12.32
2022-08-31T23:42:43.623Z,7.20
2022-08-31T23:45:12.834Z,5.30
2022-08-31T23:47:40.545Z,3.78
2022-08-31T23:50:09.971Z,2.80
2022-08-31T23:52:41.676Z,3.97
2022-08-31T23:55:11.239Z,5.63
2022-08-31T23:57:39.573Z,6.25
